TAF KDHT
AMD KDHT 090813Z 0908/1006 23011KT P6SM SCT250 WS015/24045KT FM091200 25012KT P6SM SCT250 FM091800 23022G30KT P6SM SCT250=
METAR KDHT
WC KDHT
WS KDHT
WV KDHT